Time;durP1;ratioP1;P1;durP2;ratioP2;P2;SDS_P1;SDS_P2;PMS_P1;PMS_P2;Temp;Humidity;BMP_temperature;BMP_pressure;BME280_temperature;BME280_humidity;BME280_pressure;Samples;Min_cycle;Max_cycle;Signal;HPM_P1;HPM_P2
2024/04/17 00:01:10;;;;;;;;;;;;;;;19.32;52.11;93212.59;4523235;26;20023;-60
2024/04/17 00:03:13;;;;;;;;;;;;;;;19.31;52.16;93203.81;4531721;26;20363;-60
2024/04/17 00:05:14;;;;;;;;;;;;;;;19.32;52.25;93207.28;4522828;26;19967;-61
2024/04/17 00:07:16;;;;;;;;;;;;;;;19.31;52.50;93213.63;4532939;26;20209;-61
2024/04/17 00:09:18;;;;;;;;;;;;;;;19.32;52.15;93194.00;4528924;26;19939;-60
2024/04/17 00:11:20;;;;;;;;;;;;;;;19.27;52.46;93183.31;4525632;26;20359;-60
2024/04/17 00:13:22;;;;;;;;;;;;;;;19.23;53.08;93197.09;4533926;26;19928;-60
2024/04/17 00:15:24;;;;;;;;;;;;;;;19.24;53.41;93190.72;4519170;26;19928;-61
2024/04/17 00:17:26;;;;;;;;;;;;;;;19.15;53.53;93183.47;4528854;26;19928;-60
2024/04/17 00:19:28;;;;;;;;;;;;;;;19.01;53.58;93177.72;4532060;26;19939;-59
2024/04/17 00:21:29;;;;;;;;;;;;;;;18.97;54.00;93179.28;4527824;26;20047;-60
2024/04/17 00:23:31;;;;;;;;;;;;;;;18.99;53.91;93179.81;4534232;26;19935;-60
2024/04/17 00:25:33;;;;;;;;;;;;;;;19.02;53.87;93176.69;4528583;26;20004;-59
2024/04/17 00:27:35;;;;;;;;;;;;;;;19.03;53.90;93170.31;4534235;26;19932;-60
2024/04/17 00:29:36;;;;;;;;;;;;;;;19.07;53.88;93149.41;4534069;26;19928;-58
2024/04/17 00:31:39;;;;;;;;;;;;;;;18.92;54.53;93153.47;4532573;26;19982;-59
2024/04/17 00:33:41;;;;;;;;;;;;;;;18.89;54.39;93158.50;4532616;26;20433;-60
2024/04/17 00:35:43;;;;;;;;;;;;;;;18.91;53.91;93162.50;4526477;26;19940;-60
2024/04/17 00:37:44;;;;;;;;;;;;;;;18.93;54.57;93148.97;4530355;26;19928;-60
2024/04/17 00:39:46;;;;;;;;;;;;;;;18.92;54.46;93140.22;4530091;26;19928;-60
2024/04/17 00:41:48;;;;;;;;;;;;;;;18.97;54.29;93132.31;4533626;26;19995;-61
2024/04/17 00:43:50;;;;;;;;;;;;;;;18.99;54.23;93147.97;4537812;26;19928;-61
2024/04/17 00:45:52;;;;;;;;;;;;;;;18.95;53.96;93142.38;4533454;26;20335;-59
2024/04/17 00:47:53;;;;;;;;;;;;;;;18.93;53.95;93133.88;4523100;26;19931;-62
2024/04/17 00:49:55;;;;;;;;;;;;;;;18.95;53.78;93125.66;4527187;26;19929;-60
2024/04/17 00:51:57;;;;;;;;;;;;;;;18.99;53.64;93129.41;4533047;26;19932;-59
2024/04/17 00:54:02;;;;;;;;;;;;;;;19.01;53.25;93154.66;4532773;26;20568;-58
2024/04/17 00:56:04;;;;;;;;;;;;;;;18.99;53.60;93127.56;4534568;26;19961;-60
2024/04/17 00:58:06;;;;;;;;;;;;;;;18.87;54.18;93112.84;4531721;26;19928;-59
2024/04/17 01:00:08;;;;;;;;;;;;;;;18.78;54.18;93131.06;4535824;26;19976;-61
2024/04/17 01:02:12;;;;;;;;;;;;;;;18.75;54.14;93132.28;4527940;26;20344;-61
2024/04/17 01:04:13;;;;;;;;;;;;;;;18.53;54.35;93111.09;4533261;26;19935;-61
2024/04/17 01:06:15;;;;;;;;;;;;;;;18.37;55.31;93115.41;4530987;26;19952;-60
2024/04/17 01:08:17;;;;;;;;;;;;;;;18.34;55.39;93123.84;4532345;26;19936;-59
2024/04/17 01:10:19;;;;;;;;;;;;;;;18.41;55.30;93121.00;4516815;26;19955;-60
2024/04/17 01:12:20;;;;;;;;;;;;;;;18.20;55.34;93088.16;4527559;26;20004;-59
2024/04/17 01:14:22;;;;;;;;;;;;;;;17.77;57.08;93084.34;4535909;26;19928;-60
2024/04/17 01:16:24;;;;;;;;;;;;;;;17.78;57.01;93101.81;4531107;26;19940;-61
2024/04/17 01:18:26;;;;;;;;;;;;;;;17.83;57.53;93093.97;4526058;26;19935;-63
2024/04/17 01:20:27;;;;;;;;;;;;;;;17.95;57.17;93102.63;4527905;26;19976;-62
2024/04/17 01:22:29;;;;;;;;;;;;;;;18.08;56.93;93116.59;4529060;26;19936;-62
2024/04/17 01:24:31;;;;;;;;;;;;;;;18.18;56.82;93090.25;4527357;26;19928;-59
2024/04/17 01:26:33;;;;;;;;;;;;;;;18.20;56.87;93091.59;4528513;26;19956;-60
2024/04/17 01:28:34;;;;;;;;;;;;;;;18.23;56.89;93103.56;4531863;26;20490;-60
2024/04/17 01:30:36;;;;;;;;;;;;;;;18.22;56.25;93099.31;4535236;26;20424;-60
2024/04/17 01:32:38;;;;;;;;;;;;;;;18.27;56.91;93083.47;4531734;26;19928;-61
2024/04/17 01:34:40;;;;;;;;;;;;;;;18.30;56.80;93080.31;4532493;26;19936;-60
2024/04/17 01:36:41;;;;;;;;;;;;;;;18.35;56.16;93085.69;4527750;26;19957;-59
2024/04/17 01:38:45;;;;;;;;;;;;;;;18.37;55.43;93083.59;4525855;26;19948;-61
2024/04/17 01:40:47;;;;;;;;;;;;;;;18.29;56.15;93073.41;4526555;26;19928;-62
2024/04/17 01:42:48;;;;;;;;;;;;;;;18.25;55.97;93082.91;4526406;26;19943;-59
2024/04/17 01:44:50;;;;;;;;;;;;;;;18.17;56.00;93052.31;4530066;26;20327;-61
2024/04/17 01:46:52;;;;;;;;;;;;;;;18.00;56.62;93065.63;4527736;26;19999;-62
2024/04/17 01:48:54;;;;;;;;;;;;;;;18.01;56.65;93069.06;4533887;26;19951;-60
2024/04/17 01:50:55;;;;;;;;;;;;;;;18.07;56.45;93062.81;4533696;26;20300;-60
2024/04/17 01:52:57;;;;;;;;;;;;;;;17.85;56.83;93028.31;4530403;26;20000;-60
2024/04/17 01:54:59;;;;;;;;;;;;;;;17.77;56.99;93039.31;4529716;26;19928;-60
2024/04/17 01:57:01;;;;;;;;;;;;;;;17.79;56.79;93039.88;4512402;26;20544;-60
2024/04/17 01:59:02;;;;;;;;;;;;;;;17.81;56.34;93035.13;4527017;26;19928;-59
2024/04/17 02:01:04;;;;;;;;;;;;;;;17.83;55.29;93030.41;4522280;26;20040;-62
2024/04/17 02:03:06;;;;;;;;;;;;;;;17.89;55.06;93021.47;4529851;26;19928;-61
2024/04/17 02:05:10;;;;;;;;;;;;;;;18.00;54.77;93033.00;4530240;26;20367;-60
2024/04/17 02:07:12;;;;;;;;;;;;;;;17.87;55.33;93002.38;4529169;26;19936;-57
2024/04/17 02:09:13;;;;;;;;;;;;;;;17.67;56.66;93018.78;4533334;26;20605;-60
2024/04/17 02:11:15;;;;;;;;;;;;;;;17.63;56.51;92993.81;4519183;26;20301;-60
2024/04/17 02:13:17;;;;;;;;;;;;;;;17.52;57.08;92998.19;4533343;26;19927;-60
2024/04/17 02:15:19;;;;;;;;;;;;;;;17.40;57.65;93003.59;4517593;26;20010;-59
2024/04/17 02:17:20;;;;;;;;;;;;;;;16.98;59.09;92997.91;4518723;26;19935;-59
2024/04/17 02:19:22;;;;;;;;;;;;;;;16.71;59.92;93003.78;4550928;26;19999;-59
2024/04/17 02:21:24;;;;;;;;;;;;;;;16.77;59.29;93002.81;4530978;26;19971;-60
2024/04/17 02:23:28;;;;;;;;;;;;;;;16.66;60.65;93003.66;4513315;26;19933;-59
2024/04/17 02:25:30;;;;;;;;;;;;;;;16.51;61.06;93000.75;4520310;26;19928;-59
2024/04/17 02:27:31;;;;;;;;;;;;;;;16.52;60.73;92999.69;4526175;26;20343;-58
2024/04/17 02:29:33;;;;;;;;;;;;;;;16.65;59.89;93017.13;4533659;26;19976;-61
2024/04/17 02:31:35;;;;;;;;;;;;;;;16.40;60.49;92978.63;4514581;26;20117;-60
2024/04/17 02:33:37;;;;;;;;;;;;;;;16.32;60.94;92986.94;4525620;26;19938;-59
2024/04/17 02:35:38;;;;;;;;;;;;;;;16.41;61.25;93000.56;4531904;26;19927;-58
2024/04/17 02:37:41;;;;;;;;;;;;;;;16.20;62.27;92994.09;4529272;26;19958;-59
2024/04/17 02:39:43;;;;;;;;;;;;;;;16.00;62.47;93007.72;4520434;26;19939;-61
2024/04/17 02:41:45;;;;;;;;;;;;;;;16.07;62.56;92966.94;4531253;26;20000;-60
2024/04/17 02:43:47;;;;;;;;;;;;;;;16.15;62.08;92985.06;4532817;26;20383;-59
2024/04/17 02:45:49;;;;;;;;;;;;;;;16.06;61.91;92946.81;4547071;26;19928;-60
2024/04/17 02:47:50;;;;;;;;;;;;;;;16.18;61.81;92966.06;4535984;26;19940;-60
2024/04/17 02:49:53;;;;;;;;;;;;;;;16.33;61.04;92981.41;4515229;26;19934;-60
2024/04/17 02:51:55;;;;;;;;;;;;;;;16.55;60.22;92975.47;4528225;26;20253;-58
2024/04/17 02:53:56;;;;;;;;;;;;;;;16.69;59.66;92983.88;4532417;26;20000;-58
2024/04/17 02:55:59;;;;;;;;;;;;;;;16.44;59.93;92958.63;4529228;26;19976;-60
2024/04/17 02:58:01;;;;;;;;;;;;;;;16.57;59.95;92960.97;4520322;26;19939;-61
2024/04/17 03:00:03;;;;;;;;;;;;;;;16.49;59.78;92942.03;4529496;26;20513;-60
2024/04/17 03:02:04;;;;;;;;;;;;;;;16.52;59.60;92957.41;4529534;26;20191;-62
2024/04/17 03:04:06;;;;;;;;;;;;;;;16.50;59.51;92975.38;4534420;26;21022;-60
2024/04/17 03:06:10;;;;;;;;;;;;;;;16.63;58.67;92959.22;4533226;26;19928;-61
2024/04/17 03:08:11;;;;;;;;;;;;;;;16.63;58.62;92929.31;4522807;26;19927;-59
2024/04/17 03:10:13;;;;;;;;;;;;;;;16.78;57.29;92950.75;4527059;26;20035;-59
2024/04/17 03:12:15;;;;;;;;;;;;;;;16.73;56.45;92953.28;4532182;26;19936;-60
2024/04/17 03:14:16;;;;;;;;;;;;;;;16.97;56.46;92964.53;4518406;26;19939;-60
2024/04/17 03:16:18;;;;;;;;;;;;;;;17.14;56.20;92972.47;4516424;26;19943;-60
2024/04/17 03:18:20;;;;;;;;;;;;;;;17.09;55.47;92965.25;4529261;26;20388;-61
2024/04/17 03:20:22;;;;;;;;;;;;;;;17.06;55.07;92952.53;4528641;26;19935;-61
2024/04/17 03:22:24;;;;;;;;;;;;;;;17.23;55.73;92949.03;4532422;26;19928;-58
2024/04/17 03:24:26;;;;;;;;;;;;;;;17.42;55.14;92952.22;4530117;26;20320;-58
2024/04/17 03:26:28;;;;;;;;;;;;;;;17.51;54.93;92967.47;4522812;26;20718;-59
2024/04/17 03:28:29;;;;;;;;;;;;;;;17.42;55.45;92963.63;4528178;26;20000;-63
2024/04/17 03:30:31;;;;;;;;;;;;;;;17.27;55.94;92963.41;4532118;26;20259;-59
2024/04/17 03:32:33;;;;;;;;;;;;;;;17.34;56.14;92964.06;4522464;26;20004;-58
2024/04/17 03:34:35;;;;;;;;;;;;;;;17.29;55.75;92961.31;4533444;26;19932;-59
2024/04/17 03:36:37;;;;;;;;;;;;;;;17.18;56.25;92952.44;4529399;26;19943;-60
2024/04/17 03:38:38;;;;;;;;;;;;;;;17.30;56.28;92965.59;4532473;26;19988;-60
2024/04/17 03:40:41;;;;;;;;;;;;;;;17.35;56.44;92941.81;4519647;26;19928;-60
2024/04/17 03:42:42;;;;;;;;;;;;;;;17.37;55.22;92971.50;4531472;26;19928;-60
2024/04/17 03:44:44;;;;;;;;;;;;;;;17.33;53.69;92939.41;4530711;26;19943;-58
2024/04/17 03:46:46;;;;;;;;;;;;;;;17.32;55.15;92942.31;4531524;26;19989;-59
2024/04/17 03:48:49;;;;;;;;;;;;;;;17.49;55.94;92972.22;4531199;26;19928;-59
2024/04/17 03:50:51;;;;;;;;;;;;;;;17.57;52.87;92957.72;4531779;26;19928;-58
2024/04/17 03:52:53;;;;;;;;;;;;;;;17.77;51.61;92930.72;4530945;26;19942;-59
2024/04/17 03:54:56;;;;;;;;;;;;;;;17.86;51.73;92947.81;4532893;26;19931;-59
2024/04/17 03:56:57;;;;;;;;;;;;;;;17.94;51.16;92930.69;4527736;26;19994;-59
2024/04/17 03:58:59;;;;;;;;;;;;;;;18.05;52.17;92952.78;4531700;26;19958;-61
2024/04/17 04:01:01;;;;;;;;;;;;;;;18.13;50.88;92978.84;4532715;26;19956;-61
2024/04/17 04:03:03;;;;;;;;;;;;;;;18.17;51.30;92946.31;4529439;26;19934;-58
2024/04/17 04:05:05;;;;;;;;;;;;;;;18.12;52.21;92966.66;4530895;26;20306;-59
2024/04/17 04:07:07;;;;;;;;;;;;;;;18.16;52.32;92930.69;4530876;26;19937;-60
2024/04/17 04:09:08;;;;;;;;;;;;;;;17.98;52.26;92947.69;4531354;26;19943;-60
2024/04/17 04:11:10;;;;;;;;;;;;;;;17.89;52.24;92944.66;4531004;26;19928;-59
2024/04/17 04:13:12;;;;;;;;;;;;;;;17.89;51.55;92952.63;4524978;26;20000;-60
2024/04/17 04:15:14;;;;;;;;;;;;;;;17.93;51.85;92940.47;4510441;26;19997;-58
2024/04/17 04:17:16;;;;;;;;;;;;;;;17.98;51.86;92935.25;4521997;26;19932;-60
2024/04/17 04:19:19;;;;;;;;;;;;;;;18.05;52.10;92927.13;4523219;26;19928;-61
2024/04/17 04:21:21;;;;;;;;;;;;;;;18.07;52.23;92930.31;4535048;26;19927;-63
2024/04/17 04:23:23;;;;;;;;;;;;;;;18.10;52.40;92926.38;4533781;26;19928;-62
2024/04/17 04:25:25;;;;;;;;;;;;;;;18.11;52.29;92946.50;4524193;26;20067;-61
2024/04/17 04:27:27;;;;;;;;;;;;;;;18.04;51.79;92919.41;4532690;26;19933;-60
2024/04/17 04:29:28;;;;;;;;;;;;;;;17.98;52.11;92921.19;4526288;26;19932;-61
2024/04/17 04:31:30;;;;;;;;;;;;;;;18.04;52.95;92945.91;4528998;26;20011;-63
2024/04/17 04:33:32;;;;;;;;;;;;;;;17.68;53.12;92917.13;4533323;26;19995;-61
2024/04/17 04:35:35;;;;;;;;;;;;;;;17.68;54.57;92953.38;4536845;26;19934;-60
2024/04/17 04:37:37;;;;;;;;;;;;;;;17.61;55.08;92951.69;4538286;26;19928;-59
2024/04/17 04:39:38;;;;;;;;;;;;;;;17.70;54.95;92924.81;4516842;26;20269;-58
2024/04/17 04:41:40;;;;;;;;;;;;;;;17.71;55.40;92951.03;4528189;26;19963;-60
2024/04/17 04:43:42;;;;;;;;;;;;;;;17.68;54.69;92932.19;4534854;26;19932;-62
2024/04/17 04:45:44;;;;;;;;;;;;;;;17.65;55.06;92935.34;4531626;26;19928;-61
2024/04/17 04:47:46;;;;;;;;;;;;;;;17.63;55.14;92948.03;4517194;26;20511;-59
2024/04/17 04:49:48;;;;;;;;;;;;;;;17.65;55.15;92932.69;4527887;26;19986;-59
2024/04/17 04:51:51;;;;;;;;;;;;;;;17.64;54.65;92950.44;4537818;26;19943;-61
2024/04/17 04:53:53;;;;;;;;;;;;;;;17.63;55.25;92948.03;4539670;26;19963;-62
2024/04/17 04:55:56;;;;;;;;;;;;;;;17.64;54.23;92946.97;4534498;26;19964;-62
2024/04/17 04:57:58;;;;;;;;;;;;;;;17.61;54.60;92964.94;4515589;26;20183;-61
2024/04/17 05:00:00;;;;;;;;;;;;;;;17.60;55.01;92975.78;4534401;26;20050;-60
2024/04/17 05:02:01;;;;;;;;;;;;;;;17.59;55.64;92967.06;4536286;26;19928;-57
2024/04/17 05:04:03;;;;;;;;;;;;;;;17.58;56.18;92948.75;4528548;26;20580;-62
2024/04/17 05:06:05;;;;;;;;;;;;;;;17.57;57.09;92934.72;4531922;26;19936;-62
2024/04/17 05:08:07;;;;;;;;;;;;;;;17.53;57.14;92953.97;4533018;26;19935;-62
2024/04/17 05:10:09;;;;;;;;;;;;;;;17.53;57.17;92968.03;4530387;26;20618;-62
2024/04/17 05:12:11;;;;;;;;;;;;;;;17.57;55.85;92958.56;4532949;26;19928;-60
2024/04/17 05:14:13;;;;;;;;;;;;;;;17.57;57.75;92982.38;4528272;26;19939;-61
2024/04/17 05:16:15;;;;;;;;;;;;;;;17.56;57.10;92977.31;4529131;26;19940;-62
2024/04/17 05:18:16;;;;;;;;;;;;;;;17.45;56.11;92983.53;4531071;26;19999;-60
2024/04/17 05:20:18;;;;;;;;;;;;;;;17.32;58.84;92966.13;4524668;26;19928;-61
2024/04/17 05:22:20;;;;;;;;;;;;;;;17.27;58.83;92950.16;4534801;26;19934;-58
2024/04/17 05:24:22;;;;;;;;;;;;;;;17.23;59.23;92949.03;4530555;26;19944;-62
2024/04/17 05:26:26;;;;;;;;;;;;;;;17.17;59.85;92932.31;4519030;26;19928;-62
2024/04/17 05:28:28;;;;;;;;;;;;;;;17.09;60.04;92930.06;4520130;26;19944;-63
2024/04/17 05:30:30;;;;;;;;;;;;;;;16.95;61.89;92951.56;4521115;26;19928;-61
2024/04/17 05:32:32;;;;;;;;;;;;;;;16.92;62.15;92944.09;4532738;26;20367;-59
2024/04/17 05:34:34;;;;;;;;;;;;;;;16.94;61.07;92938.56;4521269;26;20413;-60
2024/04/17 05:36:36;;;;;;;;;;;;;;;16.91;61.30;92937.22;4529654;26;19935;-60
2024/04/17 05:38:38;;;;;;;;;;;;;;;16.93;62.13;92937.00;4527477;26;19929;-59
2024/04/17 05:40:43;;;;;;;;;;;;;;;16.78;63.10;92903.94;4512904;26;20035;-59
2024/04/17 05:42:45;;;;;;;;;;;;;;;16.82;62.79;92899.00;4526956;26;19952;-61
2024/04/17 05:44:47;;;;;;;;;;;;;;;16.79;62.30;92879.06;4528518;26;19936;-60
2024/04/17 05:46:49;;;;;;;;;;;;;;;16.81;62.01;92888.66;4534539;26;20351;-59
2024/04/17 05:48:52;;;;;;;;;;;;;;;16.79;61.47;92905.53;4520750;26;19992;-62
2024/04/17 05:50:54;;;;;;;;;;;;;;;16.87;60.54;92893.00;4533192;26;19940;-60
2024/04/17 05:52:55;;;;;;;;;;;;;;;16.87;60.04;92903.56;4534598;26;19928;-60
2024/04/17 05:54:57;;;;;;;;;;;;;;;16.92;60.18;92924.78;4515582;26;20248;-61
2024/04/17 05:56:59;;;;;;;;;;;;;;;16.96;60.09;92915.34;4528129;26;20003;-59
2024/04/17 05:59:01;;;;;;;;;;;;;;;16.99;59.60;92930.72;4521652;26;19928;-61
2024/04/17 06:01:03;;;;;;;;;;;;;;;17.02;60.30;92929.44;4532575;26;19956;-61
2024/04/17 06:03:05;;;;;;;;;;;;;;;16.89;60.51;92920.00;4531587;26;20335;-63
2024/04/17 06:05:06;;;;;;;;;;;;;;;16.92;60.31;92924.78;4530521;26;20051;-61
2024/04/17 06:07:09;;;;;;;;;;;;;;;17.01;59.95;92952.44;4534277;26;20000;-58
2024/04/17 06:09:11;;;;;;;;;;;;;;;16.96;59.19;92933.84;4533162;26;20289;-61
2024/04/17 06:11:12;;;;;;;;;;;;;;;17.00;58.19;92932.31;4516320;26;19994;-59
2024/04/17 06:13:15;;;;;;;;;;;;;;;17.06;58.76;92934.00;4533512;26;19955;-59
2024/04/17 06:15:17;;;;;;;;;;;;;;;17.08;59.53;92961.03;4533046;26;19928;-60
2024/04/17 06:17:19;;;;;;;;;;;;;;;17.20;58.35;92945.84;4531629;26;19947;-59
2024/04/17 06:19:20;;;;;;;;;;;;;;;17.28;56.48;92943.84;4530105;26;19932;-63
2024/04/17 06:21:22;;;;;;;;;;;;;;;17.38;57.19;92947.44;4526841;26;20008;-60
2024/04/17 06:23:24;;;;;;;;;;;;;;;17.53;59.00;92946.03;4520167;26;19980;-60
2024/04/17 06:25:26;;;;;;;;;;;;;;;17.31;60.66;92935.41;4528620;26;20038;-60
2024/04/17 06:27:27;;;;;;;;;;;;;;;17.06;58.29;92934.00;4531474;26;20320;-59
2024/04/17 06:29:29;;;;;;;;;;;;;;;17.14;57.95;92946.84;4533375;26;20047;-61
2024/04/17 06:31:31;;;;;;;;;;;;;;;16.86;60.26;92933.69;4524196;26;19936;-59
2024/04/17 06:33:33;;;;;;;;;;;;;;;16.39;61.29;92916.25;4525686;26;20008;-59
2024/04/17 06:35:35;;;;;;;;;;;;;;;16.16;62.61;92927.72;4533410;26;19928;-59
2024/04/17 06:37:37;;;;;;;;;;;;;;;16.32;61.40;92936.72;4528709;26;20464;-62
2024/04/17 06:39:39;;;;;;;;;;;;;;;16.49;59.19;92923.53;4530277;26;19928;-60
2024/04/17 06:41:40;;;;;;;;;;;;;;;16.67;60.61;92948.94;4527262;26;19944;-60
2024/04/17 06:44:01;;;;;;;;;;;;;;;16.75;59.23;92938.78;4514347;26;20008;-59
2024/04/17 06:46:03;;;;;;;;;;;;;;;16.74;58.76;92955.69;4532390;26;19928;-59
2024/04/17 06:48:07;;;;;;;;;;;;;;;16.77;57.68;92931.41;4521988;26;20104;-59
2024/04/17 06:50:10;;;;;;;;;;;;;;;16.97;58.81;92944.19;4527773;26;19970;-58
2024/04/17 06:52:12;;;;;;;;;;;;;;;16.79;58.62;92936.47;4513270;26;19939;-61
2024/04/17 06:54:14;;;;;;;;;;;;;;;16.84;59.56;92881.03;4525273;26;19932;-60
2024/04/17 06:56:16;;;;;;;;;;;;;;;16.76;58.57;92916.59;4516563;26;20007;-61
2024/04/17 06:58:18;;;;;;;;;;;;;;;16.79;55.64;92913.44;4532350;26;19952;-61
2024/04/17 07:00:20;;;;;;;;;;;;;;;16.94;56.12;92917.41;4517218;26;19940;-61
2024/04/17 07:02:22;;;;;;;;;;;;;;;16.99;54.46;92917.47;4528750;26;20248;-60
2024/04/17 07:04:24;;;;;;;;;;;;;;;17.04;53.82;92940.59;4532792;26;19928;-60
2024/04/17 07:06:26;;;;;;;;;;;;;;;17.15;52.62;92914.03;4531106;26;19935;-63
2024/04/17 07:08:28;;;;;;;;;;;;;;;17.22;52.01;92902.47;4526536;26;20351;-59
2024/04/17 07:10:29;;;;;;;;;;;;;;;17.27;52.52;92899.88;4529976;26;19936;-58
2024/04/17 07:12:31;;;;;;;;;;;;;;;17.23;52.89;92889.00;4533230;26;20019;-61
2024/04/17 07:14:34;;;;;;;;;;;;;;;17.07;53.60;92872.09;4529127;26;19935;-60
2024/04/17 07:16:36;;;;;;;;;;;;;;;17.10;54.44;92857.59;4530306;26;20293;-61
2024/04/17 07:18:37;;;;;;;;;;;;;;;17.18;55.04;92844.75;4530470;26;19935;-60
2024/04/17 07:20:39;;;;;;;;;;;;;;;17.10;55.88;92836.41;4521930;26;19958;-61
2024/04/17 07:22:41;;;;;;;;;;;;;;;17.15;56.78;92861.13;4536573;26;19947;-60
2024/04/17 07:24:43;;;;;;;;;;;;;;;17.02;55.80;92858.81;4533819;26;20043;-60
2024/04/17 07:26:45;;;;;;;;;;;;;;;16.88;56.90;92834.53;4537468;26;20369;-62
2024/04/17 07:28:46;;;;;;;;;;;;;;;16.94;56.79;92848.66;4521363;26;19940;-59
2024/04/17 07:30:50;;;;;;;;;;;;;;;16.93;56.15;92845.22;4526913;26;19939;-62
2024/04/17 07:32:52;;;;;;;;;;;;;;;16.90;55.98;92842.25;4527082;26;19952;-60
2024/04/17 07:34:54;;;;;;;;;;;;;;;17.01;55.42;92816.72;4528707;26;19944;-62
2024/04/17 07:36:57;;;;;;;;;;;;;;;16.89;55.90;92841.44;4532381;26;19935;-59
2024/04/17 07:38:59;;;;;;;;;;;;;;;16.83;56.52;92842.41;4533091;26;19999;-60
2024/04/17 07:41:01;;;;;;;;;;;;;;;16.83;53.94;92844.25;4532746;26;19936;-61
2024/04/17 07:43:03;;;;;;;;;;;;;;;17.00;54.89;92850.31;4530079;26;20320;-60
2024/04/17 07:45:05;;;;;;;;;;;;;;;17.04;53.22;92853.28;4526413;26;20359;-58
2024/04/17 07:47:07;;;;;;;;;;;;;;;17.03;53.78;92847.19;4533210;26;19941;-62
2024/04/17 07:49:08;;;;;;;;;;;;;;;17.08;54.40;92844.63;4520950;26;19933;-60
2024/04/17 07:51:10;;;;;;;;;;;;;;;17.30;53.54;92849.13;4535108;26;19943;-63
2024/04/17 07:53:12;;;;;;;;;;;;;;;17.43;53.63;92851.41;4535013;26;20021;-61
2024/04/17 07:55:14;;;;;;;;;;;;;;;17.55;54.09;92848.63;4533094;26;20032;-62
2024/04/17 07:57:16;;;;;;;;;;;;;;;17.70;53.42;92866.53;4531281;26;19995;-59
2024/04/17 07:59:19;;;;;;;;;;;;;;;17.64;52.54;92846.34;4522930;26;20342;-62
2024/04/17 08:01:21;;;;;;;;;;;;;;;17.60;53.62;92849.50;4517162;26;20451;-60
2024/04/17 08:03:23;;;;;;;;;;;;;;;17.74;53.32;92843.81;4533780;26;20296;-61
2024/04/17 08:05:25;;;;;;;;;;;;;;;17.73;53.03;92861.56;4522376;26;19946;-61
2024/04/17 08:07:30;;;;;;;;;;;;;;;17.71;52.34;92858.34;4534921;26;19934;-61
2024/04/17 08:09:31;;;;;;;;;;;;;;;17.80;51.53;92885.19;4525808;26;19928;-61
2024/04/17 08:11:35;;;;;;;;;;;;;;;17.83;51.60;92870.69;4527006;26;19933;-61
2024/04/17 08:13:39;;;;;;;;;;;;;;;17.81;51.68;92870.94;4528983;26;19936;-60
2024/04/17 08:15:41;;;;;;;;;;;;;;;17.86;50.74;92862.25;4526399;26;19936;-60
2024/04/17 08:17:43;;;;;;;;;;;;;;;17.97;51.41;92859.47;4529931;26;19928;-61
2024/04/17 08:19:45;;;;;;;;;;;;;;;18.00;51.97;92882.00;4519593;26;20966;-62
2024/04/17 08:21:47;;;;;;;;;;;;;;;18.03;51.67;92878.06;4520407;26;20309;-59
2024/04/17 08:23:49;;;;;;;;;;;;;;;18.16;51.89;92882.97;4535575;26;20296;-61
2024/04/17 08:25:51;;;;;;;;;;;;;;;18.22;49.85;92895.22;4521844;26;19935;-60
2024/04/17 08:27:52;;;;;;;;;;;;;;;17.85;50.19;92877.34;4531185;26;19932;-60
2024/04/17 08:29:54;;;;;;;;;;;;;;;17.99;49.44;92875.91;4530393;26;19936;-59
2024/04/17 08:31:56;;;;;;;;;;;;;;;17.93;49.52;92886.69;4515863;26;20258;-60
2024/04/17 08:33:58;;;;;;;;;;;;;;;17.51;51.88;92877.47;4530946;26;19972;-60
2024/04/17 08:36:00;;;;;;;;;;;;;;;17.57;52.90;92860.59;4551081;26;20331;-61
2024/04/17 08:38:01;;;;;;;;;;;;;;;17.43;53.74;92885.81;4533841;26;19927;-60
2024/04/17 08:40:09;;;;;;;;;;;;;;;17.60;53.39;92893.72;4526799;26;19932;-61
2024/04/17 08:42:11;;;;;;;;;;;;;;;17.41;52.21;92887.91;4532130;26;20015;-62
2024/04/17 08:44:15;;;;;;;;;;;;;;;17.52;52.43;92881.69;4527677;26;20012;-61
2024/04/17 08:46:16;;;;;;;;;;;;;;;17.74;50.96;92884.34;4496480;26;19932;-60
2024/04/17 08:48:18;;;;;;;;;;;;;;;17.84;51.88;92878.41;4512610;26;19939;-61
2024/04/17 08:50:21;;;;;;;;;;;;;;;17.82;51.77;92848.72;4521492;26;19928;-61
2024/04/17 08:52:23;;;;;;;;;;;;;;;17.65;52.77;92866.50;4533502;26;19932;-60
2024/04/17 08:54:25;;;;;;;;;;;;;;;17.74;51.82;92863.16;4528933;26;19951;-60
2024/04/17 08:56:26;;;;;;;;;;;;;;;17.88;52.05;92868.91;4529280;26;20217;-62
2024/04/17 08:58:28;;;;;;;;;;;;;;;18.06;50.57;92859.03;4500668;26;19936;-61
2024/04/17 09:00:30;;;;;;;;;;;;;;;17.79;51.22;92860.56;4526383;26;19928;-60
2024/04/17 09:02:32;;;;;;;;;;;;;;;17.91;50.65;92849.06;4523798;26;19928;-61
2024/04/17 09:04:34;;;;;;;;;;;;;;;17.73;50.56;92821.03;4518929;26;19927;-58
2024/04/17 09:06:36;;;;;;;;;;;;;;;17.95;50.67;92832.41;4534956;26;19935;-60
2024/04/17 09:08:38;;;;;;;;;;;;;;;18.29;50.51;92828.75;4502458;26;19929;-61
2024/04/17 09:10:40;;;;;;;;;;;;;;;18.57;49.83;92835.63;4549331;26;19995;-60
2024/04/17 09:12:44;;;;;;;;;;;;;;;18.56;49.20;92845.44;4564414;25;19934;-61
2024/04/17 09:14:46;;;;;;;;;;;;;;;18.48;49.43;92845.88;4525188;26;20287;-60
2024/04/17 09:16:57;;;;;;;;;;;;;;;18.27;49.03;92831.66;4518604;26;19941;-61
2024/04/17 09:18:59;;;;;;;;;;;;;;;18.56;49.70;92844.59;4534801;26;20085;-61
2024/04/17 09:21:01;;;;;;;;;;;;;;;18.94;50.65;92829.53;4533997;26;19996;-63
2024/04/17 09:23:09;;;;;;;;;;;;;;;19.20;49.66;92831.25;4525875;26;19929;-59
2024/04/17 09:25:14;;;;;;;;;;;;;;;19.47;49.35;92833.00;4524280;26;19965;-60
2024/04/17 09:27:16;;;;;;;;;;;;;;;19.68;48.65;92839.19;4533415;26;20402;-60
2024/04/17 09:29:18;;;;;;;;;;;;;;;19.68;47.25;92823.25;4530668;26;20000;-60
2024/04/17 09:31:19;;;;;;;;;;;;;;;19.82;47.69;92842.19;4531206;26;20328;-61
2024/04/17 09:33:21;;;;;;;;;;;;;;;20.14;47.64;92830.56;4525247;26;19981;-62
2024/04/17 09:35:23;;;;;;;;;;;;;;;20.38;48.06;92841.50;4536275;26;19928;-60
2024/04/17 09:37:25;;;;;;;;;;;;;;;20.53;48.34;92856.66;4534758;26;19935;-60
2024/04/17 09:39:27;;;;;;;;;;;;;;;20.53;48.73;92838.03;4529122;26;20265;-61
2024/04/17 09:41:29;;;;;;;;;;;;;;;20.83;47.66;92837.25;4525028;26;19928;-60
2024/04/17 09:43:31;;;;;;;;;;;;;;;20.18;47.06;92840.41;4527483;26;20442;-60
2024/04/17 09:45:33;;;;;;;;;;;;;;;20.11;47.74;92833.72;4521246;26;20335;-59
2024/04/17 09:47:36;;;;;;;;;;;;;;;20.19;48.36;92841.19;4521899;26;20136;-63
2024/04/17 09:49:38;;;;;;;;;;;;;;;20.11;47.55;92833.72;4533760;26;19939;-61
2024/04/17 09:51:40;;;;;;;;;;;;;;;20.33;47.33;92809.59;4532220;26;19942;-61
2024/04/17 09:53:46;;;;;;;;;;;;;;;20.69;47.94;92814.91;4530134;26;19940;-61
2024/04/17 09:55:48;;;;;;;;;;;;;;;20.98;46.67;92813.28;4527976;26;20081;-60
2024/04/17 09:57:50;;;;;;;;;;;;;;;21.16;44.82;92822.56;4532820;26;20029;-60
2024/04/17 09:59:56;;;;;;;;;;;;;;;21.23;45.92;92824.94;4527167;26;20251;-62
2024/04/17 10:01:58;;;;;;;;;;;;;;;21.45;45.46;92820.13;4526236;26;19935;-63
2024/04/17 10:04:00;;;;;;;;;;;;;;;21.15;44.48;92810.31;4523783;26;19935;-61
2024/04/17 10:06:04;;;;;;;;;;;;;;;21.41;44.86;92812.91;4530411;26;20769;-62
2024/04/17 10:08:06;;;;;;;;;;;;;;;21.72;44.37;92831.47;4529921;26;20264;-61
2024/04/17 10:10:09;;;;;;;;;;;;;;;21.89;42.66;92805.25;4511013;26;19928;-62
2024/04/17 10:12:14;;;;;;;;;;;;;;;22.07;42.37;92809.97;4518285;26;19928;-61
2024/04/17 10:14:18;;;;;;;;;;;;;;;22.09;42.60;92791.81;4530064;26;20381;-62
2024/04/17 10:16:19;;;;;;;;;;;;;;;22.32;42.41;92805.56;4526008;26;19944;-61
2024/04/17 10:18:21;;;;;;;;;;;;;;;22.31;42.98;92763.97;4525010;26;19935;-62
2024/04/17 10:20:26;;;;;;;;;;;;;;;22.71;42.46;92775.34;4524690;26;19943;-60
2024/04/17 10:22:29;;;;;;;;;;;;;;;22.94;41.69;92789.81;4519909;26;19985;-59
2024/04/17 10:24:31;;;;;;;;;;;;;;;23.05;41.14;92771.84;4529481;26;19977;-60
2024/04/17 10:26:51;;;;;;;;;;;;;;;22.92;41.29;92761.81;4524545;26;19932;-61
2024/04/17 10:28:53;;;;;;;;;;;;;;;23.13;41.18;92773.91;4524062;26;20261;-60
2024/04/17 10:30:55;;;;;;;;;;;;;;;23.38;41.11;92772.03;4534378;26;19935;-62
2024/04/17 10:32:57;;;;;;;;;;;;;;;23.27;40.57;92756.13;4529061;26;19928;-60
2024/04/17 10:34:59;;;;;;;;;;;;;;;23.25;39.95;92762.81;4533745;26;19935;-61
2024/04/17 10:37:01;;;;;;;;;;;;;;;23.14;40.72;92750.66;4532411;26;19997;-61